ADDS METAR Data INFO
IDs: Format: Raw Decoded Include TAF

Data at: 1229 UTC 20 Jul 2017

METAR for:PACD (Cold Bay Arpt, AK, US)
Text:PACD 201153Z AUTO 31019G25KT 3SM BR OVC002 09/09 A2982 RMK AO2 PK WND 31028/1055 SLP099 60006 70021 T00940094 10094 20089 51002 TSNO $
Temperature: 9.4°C ( 49°F)
Dewpoint: 9.4°C ( 49°F) [RH = 100%]
Pressure (altimeter):29.82 inches Hg (1009.9 mb) [Sea level pressure: 1009.9 mb]
Winds:from the NW (310 degrees) at 22 MPH (19 knots; 9.8 m/s) gusting to 29 MPH (25 knots; 12.9 m/s)
Visibility: 3 sm ( 5 km)
Ceiling:200 feet AGL
Clouds: overcast cloud deck at 200 feet AGL
Weather:BR (mist)
QC Flag:automated observation with no human augmentation; SOME DATA ABOVE MAY BE INACCURATE!!!"$" is an indication the sensor requires maintenance.
Text:PACD 201053Z AUTO 31022G26KT 6SM BR OVC004 09/09 A2982 RMK AO2 PK WND 31029/1004 RAB01E13B32E41 SLP099 P0000 T00940094 TSNO $
Temperature: 9.4°C ( 49°F)
Dewpoint: 9.4°C ( 49°F) [RH = 100%]
Pressure (altimeter):29.82 inches Hg (1009.9 mb) [Sea level pressure: 1009.9 mb]
Winds:from the NW (310 degrees) at 25 MPH (22 knots; 11.3 m/s) gusting to 30 MPH (26 knots; 13.4 m/s)
Visibility: 6 sm ( 10 km)
Ceiling:400 feet AGL
Clouds: overcast cloud deck at 400 feet AGL
Weather:BR (mist)
QC Flag:automated observation with no human augmentation; SOME DATA ABOVE MAY BE INACCURATE!!!"$" is an indication the sensor requires maintenance.
Text:PACD 201031Z AUTO 31020KT 8SM OVC004 09/09 A2982 RMK AO2 PK WND 31029/1004 RAB01E13 P0000 T00940094 TSNO $
Temperature: 9.4°C ( 49°F)
Dewpoint: 9.4°C ( 49°F) [RH = 100%]
Pressure (altimeter):29.82 inches Hg (1009.9 mb)
Winds:from the NW (310 degrees) at 23 MPH (20 knots; 10.3 m/s)
Visibility: 8 sm ( 13 km)
Ceiling:400 feet AGL
Clouds: overcast cloud deck at 400 feet AGL
QC Flag:automated observation with no human augmentation; SOME DATA ABOVE MAY BE INACCURATE!!!"$" is an indication the sensor requires maintenance.
Text:PACD 200953Z AUTO 30020G28KT 10SM OVC005 09/09 A2982 RMK AO2 PK WND 30030/0943 RAE04B06E46 SLP100 P0004 T00890089 TSNO $
Temperature: 8.9°C ( 48°F)
Dewpoint: 8.9°C ( 48°F) [RH = 100%]
Pressure (altimeter):29.82 inches Hg (1009.9 mb) [Sea level pressure: 1010.0 mb]
Winds:from the WNW (300 degrees) at 23 MPH (20 knots; 10.3 m/s) gusting to 32 MPH (28 knots; 14.4 m/s)
Visibility:10 or more sm (16+ km)
Ceiling:500 feet AGL
Clouds: overcast cloud deck at 500 feet AGL
QC Flag:automated observation with no human augmentation; SOME DATA ABOVE MAY BE INACCURATE!!!"$" is an indication the sensor requires maintenance.
Text:PACD 200853Z AUTO 28023KT 10SM -RA OVC008 09/09 A2982 RMK AO2 PK WND 29030/0840 RAE04B21 SLP098 P0000 60002 T00940089 401170089 58002 TSNO $
Temperature: 9.4°C ( 49°F)
Dewpoint: 8.9°C ( 48°F) [RH = 97%]
Pressure (altimeter):29.82 inches Hg (1009.9 mb) [Sea level pressure: 1009.8 mb]
Winds:from the W (280 degrees) at 26 MPH (23 knots; 11.8 m/s)
Visibility:10 or more sm (16+ km)
Ceiling:800 feet AGL
Clouds: overcast cloud deck at 800 feet AGL
Weather:-RA (light rain)
QC Flag:automated observation with no human augmentation; SOME DATA ABOVE MAY BE INACCURATE!!!"$" is an indication the sensor requires maintenance.
Text:PACD 200753Z AUTO 28021KT 10SM -RA OVC008 09/09 A2982 RMK AO2 PK WND 29027/0749 SLP098 P0001 T00940089 TSNO $
Temperature: 9.4°C ( 49°F)
Dewpoint: 8.9°C ( 48°F) [RH = 97%]
Pressure (altimeter):29.82 inches Hg (1009.9 mb) [Sea level pressure: 1009.8 mb]
Winds:from the W (280 degrees) at 24 MPH (21 knots; 10.8 m/s)
Visibility:10 or more sm (16+ km)
Ceiling:800 feet AGL
Clouds: overcast cloud deck at 800 feet AGL
Weather:-RA (light rain)
QC Flag:automated observation with no human augmentation; SOME DATA ABOVE MAY BE INACCURATE!!!"$" is an indication the sensor requires maintenance.
Text:PACD 200734Z AUTO 28020KT 10SM -RA OVC009 09/09 A2982 RMK AO2 PK WND 29026/0728 CIG 007V012 P0001 T00890089 TSNO $
Temperature: 8.9°C ( 48°F)
Dewpoint: 8.9°C ( 48°F) [RH = 100%]
Pressure (altimeter):29.82 inches Hg (1009.9 mb)
Winds:from the W (280 degrees) at 23 MPH (20 knots; 10.3 m/s)
Visibility:10 or more sm (16+ km)
Ceiling:900 feet AGL
Clouds: overcast cloud deck at 900 feet AGL
Weather:-RA (light rain)
QC Flag:automated observation with no human augmentation; SOME DATA ABOVE MAY BE INACCURATE!!!"$" is an indication the sensor requires maintenance.
Text:PACD 200653Z AUTO 29022KT 10SM -RA OVC010 09/09 A2983 RMK AO2 PK WND 28027/0637 RAB0555 SLP101 P0001 T00940089 TSNO $
Temperature: 9.4°C ( 49°F)
Dewpoint: 8.9°C ( 48°F) [RH = 97%]
Pressure (altimeter):29.83 inches Hg (1010.2 mb) [Sea level pressure: 1010.1 mb]
Winds:from the WNW (290 degrees) at 25 MPH (22 knots; 11.3 m/s)
Visibility:10 or more sm (16+ km)
Ceiling:1000 feet AGL
Clouds: overcast cloud deck at 1000 feet AGL
Weather:-RA (light rain)
QC Flag:automated observation with no human augmentation; SOME DATA ABOVE MAY BE INACCURATE!!!"$" is an indication the sensor requires maintenance.
Text:PACD 200636Z AUTO 29022KT 10SM -RA BKN010 OVC055 09/09 A2983 RMK AO2 PK WND 28026/0610 RAB0555 P0001 T00940089 TSNO $
Temperature: 9.4°C ( 49°F)
Dewpoint: 8.9°C ( 48°F) [RH = 97%]
Pressure (altimeter):29.83 inches Hg (1010.2 mb)
Winds:from the WNW (290 degrees) at 25 MPH (22 knots; 11.3 m/s)
Visibility:10 or more sm (16+ km)
Ceiling:1000 feet AGL
Clouds: broken clouds at 1000 feet AGL, overcast cloud deck at 5500 feet AGL
Weather:-RA (light rain)
QC Flag:automated observation with no human augmentation; SOME DATA ABOVE MAY BE INACCURATE!!!"$" is an indication the sensor requires maintenance.

TAF for:PACD (Cold Bay Arpt, AK, US) issued at 1140 UTC 20 Jul 2017
Text:PACD 201140Z 2012/2112 31020KT 6SM BR VCSH SCT004 OVC008
Forecast period:1200 to 2000 UTC 20 July 2017
Forecast type:FROM: standard forecast or significant change
Winds:from the NW (310 degrees) at 23 MPH (20 knots; 10.3 m/s)
Visibility: 6 sm ( 10 km)
Ceiling:800 feet AGL
Clouds: scattered clouds at 400 feet AGL, overcast cloud deck at 800 feet AGL
Weather:BR VCSH (mist, showers in vicinity)
Text:TEMPO 2012/2015 31020G27KT 6SM BR OVC004
Forecast period:1200 to 1500 UTC 20 July 2017
Forecast type:TEMPORARY: The following changes expected for less than half the time period
Winds:from the NW (310 degrees) at 23 MPH (20 knots; 10.3 m/s) gusting to 31 MPH (27 knots; 13.9 m/s)
Visibility: 6 sm ( 10 km)
Ceiling:400 feet AGL
Clouds: overcast cloud deck at 400 feet AGL
Weather:BR (mist)
Text:FM202000 32015KT P6SM VCFG SCT008 OVC015
Forecast period:2000 UTC 20 July 2017 to 1200 UTC 21 July 2017
Forecast type:FROM: standard forecast or significant change
Winds:from the NW (320 degrees) at 17 MPH (15 knots; 7.7 m/s)
Visibility:6 or more sm (10+ km)
Ceiling:1500 feet AGL
Clouds: scattered clouds at 800 feet AGL, overcast cloud deck at 1500 feet AGL
Weather:VCFG (fog in vicinity)